sensor_id;sensor_type;location;lat;lon;timestamp;P1;durP1;ratioP1;P2;durP2;ratioP2
21494;SDS011;10909;53.590;10.054;2023-03-18T00:00:05;3.03;;;2.38;;
21494;SDS011;10909;53.590;10.054;2023-03-18T00:02:37;2.38;;;2.08;;
21494;SDS011;10909;53.590;10.054;2023-03-18T00:05:05;2.88;;;2.30;;
21494;SDS011;10909;53.590;10.054;2023-03-18T00:07:35;2.40;;;2.17;;
21494;SDS011;10909;53.590;10.054;2023-03-18T00:10:03;2.37;;;2.17;;
21494;SDS011;10909;53.590;10.054;2023-03-18T00:12:30;2.55;;;2.13;;
21494;SDS011;10909;53.590;10.054;2023-03-18T00:14:57;2.97;;;2.43;;
21494;SDS011;10909;53.590;10.054;2023-03-18T00:17:39;2.10;;;1.90;;
21494;SDS011;10909;53.590;10.054;2023-03-18T00:20:06;2.67;;;2.30;;
21494;SDS011;10909;53.590;10.054;2023-03-18T00:22:34;4.17;;;2.27;;
21494;SDS011;10909;53.590;10.054;2023-03-18T00:25:02;3.97;;;2.30;;
21494;SDS011;10909;53.590;10.054;2023-03-18T00:27:29;3.05;;;2.00;;
21494;SDS011;10909;53.590;10.054;2023-03-18T00:29:56;3.60;;;2.03;;
21494;SDS011;10909;53.590;10.054;2023-03-18T00:32:27;2.20;;;2.00;;
21494;SDS011;10909;53.590;10.054;2023-03-18T00:34:54;3.33;;;2.17;;
21494;SDS011;10909;53.590;10.054;2023-03-18T00:37:23;2.90;;;2.23;;
21494;SDS011;10909;53.590;10.054;2023-03-18T00:40:05;3.10;;;2.30;;
21494;SDS011;10909;53.590;10.054;2023-03-18T00:42:36;3.77;;;2.50;;
21494;SDS011;10909;53.590;10.054;2023-03-18T00:45:07;2.67;;;2.38;;
21494;SDS011;10909;53.590;10.054;2023-03-18T00:47:35;2.90;;;2.10;;
21494;SDS011;10909;53.590;10.054;2023-03-18T00:50:02;2.50;;;2.20;;
21494;SDS011;10909;53.590;10.054;2023-03-18T00:52:30;3.13;;;2.20;;
21494;SDS011;10909;53.590;10.054;2023-03-18T00:54:56;2.40;;;2.17;;
21494;SDS011;10909;53.590;10.054;2023-03-18T00:57:32;2.10;;;1.80;;
21494;SDS011;10909;53.590;10.054;2023-03-18T00:59:59;3.43;;;2.07;;
21494;SDS011;10909;53.590;10.054;2023-03-18T01:02:25;2.97;;;2.33;;
21494;SDS011;10909;53.590;10.054;2023-03-18T01:04:53;3.58;;;2.10;;
21494;SDS011;10909;53.590;10.054;2023-03-18T01:07:23;3.53;;;2.33;;
21494;SDS011;10909;53.590;10.054;2023-03-18T01:09:51;2.20;;;1.93;;
21494;SDS011;10909;53.590;10.054;2023-03-18T01:12:16;3.37;;;2.50;;
21494;SDS011;10909;53.590;10.054;2023-03-18T01:14:47;2.67;;;2.17;;
21494;SDS011;10909;53.590;10.054;2023-03-18T01:17:13;3.50;;;2.20;;
21494;SDS011;10909;53.590;10.054;2023-03-18T01:19:39;4.33;;;2.10;;
21494;SDS011;10909;53.590;10.054;2023-03-18T01:22:11;3.73;;;2.10;;
21494;SDS011;10909;53.590;10.054;2023-03-18T01:24:37;3.17;;;2.00;;
21494;SDS011;10909;53.590;10.054;2023-03-18T01:27:13;2.53;;;2.20;;
21494;SDS011;10909;53.590;10.054;2023-03-18T01:29:39;2.70;;;2.23;;
21494;SDS011;10909;53.590;10.054;2023-03-18T01:32:05;2.40;;;1.90;;
21494;SDS011;10909;53.590;10.054;2023-03-18T01:34:31;2.30;;;2.00;;
21494;SDS011;10909;53.590;10.054;2023-03-18T01:36:58;2.10;;;1.90;;
21494;SDS011;10909;53.590;10.054;2023-03-18T01:39:24;2.47;;;1.93;;
21494;SDS011;10909;53.590;10.054;2023-03-18T01:42:01;2.30;;;1.80;;
21494;SDS011;10909;53.590;10.054;2023-03-18T01:44:27;2.77;;;1.87;;
21494;SDS011;10909;53.590;10.054;2023-03-18T01:46:55;2.33;;;1.83;;
21494;SDS011;10909;53.590;10.054;2023-03-18T01:49:30;2.27;;;2.00;;
21494;SDS011;10909;53.590;10.054;2023-03-18T01:52:01;2.23;;;1.90;;
21494;SDS011;10909;53.590;10.054;2023-03-18T01:54:33;3.27;;;2.03;;
21494;SDS011;10909;53.590;10.054;2023-03-18T01:57:19;2.53;;;1.80;;
21494;SDS011;10909;53.590;10.054;2023-03-18T01:59:48;2.67;;;1.87;;
21494;SDS011;10909;53.590;10.054;2023-03-18T02:02:17;2.07;;;1.73;;
21494;SDS011;10909;53.590;10.054;2023-03-18T02:04:54;2.70;;;1.70;;
21494;SDS011;10909;53.590;10.054;2023-03-18T02:07:24;2.27;;;1.80;;
21494;SDS011;10909;53.590;10.054;2023-03-18T02:09:56;3.10;;;1.80;;
21494;SDS011;10909;53.590;10.054;2023-03-18T02:12:25;2.20;;;1.80;;
21494;SDS011;10909;53.590;10.054;2023-03-18T02:14:54;3.03;;;1.80;;
21494;SDS011;10909;53.590;10.054;2023-03-18T02:17:25;2.00;;;1.60;;
21494;SDS011;10909;53.590;10.054;2023-03-18T02:22:34;2.37;;;2.03;;
21494;SDS011;10909;53.590;10.054;2023-03-18T02:25:54;2.43;;;1.80;;
21494;SDS011;10909;53.590;10.054;2023-03-18T02:28:13;1.50;;;1.40;;
21494;SDS011;10909;53.590;10.054;2023-03-18T02:30:48;2.57;;;1.60;;
21494;SDS011;10909;53.590;10.054;2023-03-18T02:33:26;2.27;;;1.80;;
21494;SDS011;10909;53.590;10.054;2023-03-18T02:35:59;1.57;;;1.47;;
21494;SDS011;10909;53.590;10.054;2023-03-18T02:38:31;2.40;;;1.90;;
21494;SDS011;10909;53.590;10.054;2023-03-18T02:40:57;3.10;;;1.97;;
21494;SDS011;10909;53.590;10.054;2023-03-18T02:43:32;3.13;;;1.70;;
21494;SDS011;10909;53.590;10.054;2023-03-18T02:46:11;2.10;;;1.50;;
21494;SDS011;10909;53.590;10.054;2023-03-18T02:48:41;2.30;;;1.77;;
21494;SDS011;10909;53.590;10.054;2023-03-18T02:51:10;2.07;;;1.73;;
21494;SDS011;10909;53.590;10.054;2023-03-18T02:53:37;2.33;;;1.90;;
21494;SDS011;10909;53.590;10.054;2023-03-18T02:56:03;1.93;;;1.53;;
21494;SDS011;10909;53.590;10.054;2023-03-18T02:58:31;2.27;;;1.63;;
21494;SDS011;10909;53.590;10.054;2023-03-18T03:00:57;2.13;;;1.90;;
21494;SDS011;10909;53.590;10.054;2023-03-18T03:03:24;1.80;;;1.50;;
21494;SDS011;10909;53.590;10.054;2023-03-18T03:05:51;3.33;;;2.10;;
21494;SDS011;10909;53.590;10.054;2023-03-18T03:08:19;2.37;;;1.90;;
21494;SDS011;10909;53.590;10.054;2023-03-18T03:10:52;3.73;;;1.93;;
21494;SDS011;10909;53.590;10.054;2023-03-18T03:13:19;2.90;;;1.87;;
21494;SDS011;10909;53.590;10.054;2023-03-18T03:15:48;2.50;;;1.90;;
21494;SDS011;10909;53.590;10.054;2023-03-18T03:18:16;2.40;;;1.83;;
21494;SDS011;10909;53.590;10.054;2023-03-18T03:20:49;3.03;;;1.87;;
21494;SDS011;10909;53.590;10.054;2023-03-18T03:23:15;2.00;;;1.80;;
21494;SDS011;10909;53.590;10.054;2023-03-18T03:25:42;1.93;;;1.70;;
21494;SDS011;10909;53.590;10.054;2023-03-18T03:28:19;2.00;;;1.80;;
21494;SDS011;10909;53.590;10.054;2023-03-18T03:30:46;2.17;;;1.80;;
21494;SDS011;10909;53.590;10.054;2023-03-18T03:33:12;2.27;;;1.63;;
21494;SDS011;10909;53.590;10.054;2023-03-18T03:35:39;2.40;;;1.80;;
21494;SDS011;10909;53.590;10.054;2023-03-18T03:38:06;2.13;;;1.80;;
21494;SDS011;10909;53.590;10.054;2023-03-18T03:40:33;2.77;;;1.80;;
21494;SDS011;10909;53.590;10.054;2023-03-18T03:43:01;1.87;;;1.50;;
21494;SDS011;10909;53.590;10.054;2023-03-18T03:45:28;3.37;;;1.90;;
21494;SDS011;10909;53.590;10.054;2023-03-18T03:47:54;2.00;;;1.80;;
21494;SDS011;10909;53.590;10.054;2023-03-18T03:50:21;2.20;;;1.67;;
21494;SDS011;10909;53.590;10.054;2023-03-18T03:52:47;1.90;;;1.63;;
21494;SDS011;10909;53.590;10.054;2023-03-18T03:55:15;2.17;;;1.97;;
21494;SDS011;10909;53.590;10.054;2023-03-18T03:57:43;5.10;;;1.80;;
21494;SDS011;10909;53.590;10.054;2023-03-18T04:00:11;2.23;;;1.87;;
21494;SDS011;10909;53.590;10.054;2023-03-18T04:02:40;4.77;;;1.90;;
21494;SDS011;10909;53.590;10.054;2023-03-18T04:05:07;2.20;;;1.90;;
21494;SDS011;10909;53.590;10.054;2023-03-18T04:07:36;3.57;;;2.07;;
21494;SDS011;10909;53.590;10.054;2023-03-18T04:10:03;3.00;;;2.00;;
21494;SDS011;10909;53.590;10.054;2023-03-18T04:12:30;3.77;;;1.90;;
21494;SDS011;10909;53.590;10.054;2023-03-18T04:14:56;2.43;;;1.70;;
21494;SDS011;10909;53.590;10.054;2023-03-18T04:17:23;2.13;;;1.50;;
21494;SDS011;10909;53.590;10.054;2023-03-18T04:19:49;2.07;;;1.83;;
21494;SDS011;10909;53.590;10.054;2023-03-18T04:22:20;2.03;;;1.53;;
21494;SDS011;10909;53.590;10.054;2023-03-18T04:24:47;2.23;;;1.77;;
21494;SDS011;10909;53.590;10.054;2023-03-18T04:27:15;2.10;;;1.67;;
21494;SDS011;10909;53.590;10.054;2023-03-18T04:29:42;2.23;;;1.90;;
21494;SDS011;10909;53.590;10.054;2023-03-18T04:32:09;2.53;;;1.80;;
21494;SDS011;10909;53.590;10.054;2023-03-18T04:34:37;2.27;;;1.57;;
21494;SDS011;10909;53.590;10.054;2023-03-18T04:37:06;3.03;;;1.80;;
21494;SDS011;10909;53.590;10.054;2023-03-18T04:39:34;2.00;;;1.80;;
21494;SDS011;10909;53.590;10.054;2023-03-18T04:42:00;2.63;;;2.03;;
21494;SDS011;10909;53.590;10.054;2023-03-18T04:44:29;3.47;;;2.10;;
21494;SDS011;10909;53.590;10.054;2023-03-18T04:46:56;2.40;;;2.00;;
21494;SDS011;10909;53.590;10.054;2023-03-18T04:49:23;5.80;;;2.40;;
21494;SDS011;10909;53.590;10.054;2023-03-18T04:54:24;2.37;;;2.07;;
21494;SDS011;10909;53.590;10.054;2023-03-18T04:56:52;3.23;;;2.27;;
21494;SDS011;10909;53.590;10.054;2023-03-18T04:59:18;2.40;;;1.97;;
21494;SDS011;10909;53.590;10.054;2023-03-18T05:01:48;3.37;;;2.10;;
21494;SDS011;10909;53.590;10.054;2023-03-18T05:04:14;3.80;;;2.53;;
21494;SDS011;10909;53.590;10.054;2023-03-18T05:06:41;3.93;;;2.27;;
21494;SDS011;10909;53.590;10.054;2023-03-18T05:09:07;3.13;;;2.30;;
21494;SDS011;10909;53.590;10.054;2023-03-18T05:11:33;4.07;;;2.47;;
21494;SDS011;10909;53.590;10.054;2023-03-18T05:14:01;3.53;;;2.20;;
21494;SDS011;10909;53.590;10.054;2023-03-18T05:16:27;2.70;;;2.30;;
21494;SDS011;10909;53.590;10.054;2023-03-18T05:18:54;4.83;;;2.30;;
21494;SDS011;10909;53.590;10.054;2023-03-18T05:21:20;4.13;;;2.60;;
21494;SDS011;10909;53.590;10.054;2023-03-18T05:23:46;3.83;;;2.70;;
21494;SDS011;10909;53.590;10.054;2023-03-18T05:26:14;2.70;;;2.50;;
21494;SDS011;10909;53.590;10.054;2023-03-18T05:28:41;2.33;;;2.13;;
21494;SDS011;10909;53.590;10.054;2023-03-18T05:31:08;3.70;;;2.67;;
21494;SDS011;10909;53.590;10.054;2023-03-18T05:33:34;3.70;;;2.70;;
21494;SDS011;10909;53.590;10.054;2023-03-18T05:36:01;3.07;;;2.33;;
21494;SDS011;10909;53.590;10.054;2023-03-18T05:38:28;3.73;;;2.80;;
21494;SDS011;10909;53.590;10.054;2023-03-18T05:40:57;3.90;;;2.50;;
21494;SDS011;10909;53.590;10.054;2023-03-18T05:43:23;3.10;;;2.47;;
21494;SDS011;10909;53.590;10.054;2023-03-18T05:45:50;5.37;;;2.70;;
21494;SDS011;10909;53.590;10.054;2023-03-18T05:48:16;4.40;;;2.80;;
21494;SDS011;10909;53.590;10.054;2023-03-18T05:50:42;3.37;;;2.63;;
21494;SDS011;10909;53.590;10.054;2023-03-18T05:53:13;2.97;;;2.50;;
21494;SDS011;10909;53.590;10.054;2023-03-18T05:55:41;4.33;;;2.70;;
21494;SDS011;10909;53.590;10.054;2023-03-18T05:58:08;3.00;;;2.57;;
21494;SDS011;10909;53.590;10.054;2023-03-18T06:00:35;4.50;;;2.90;;
21494;SDS011;10909;53.590;10.054;2023-03-18T06:03:01;4.23;;;2.77;;
21494;SDS011;10909;53.590;10.054;2023-03-18T06:05:30;3.70;;;3.20;;
21494;SDS011;10909;53.590;10.054;2023-03-18T06:07:57;4.30;;;3.30;;
21494;SDS011;10909;53.590;10.054;2023-03-18T06:10:23;4.53;;;3.70;;
21494;SDS011;10909;53.590;10.054;2023-03-18T06:12:49;4.67;;;3.27;;
21494;SDS011;10909;53.590;10.054;2023-03-18T06:15:16;4.47;;;3.20;;
21494;SDS011;10909;53.590;10.054;2023-03-18T06:18:00;4.03;;;3.03;;
21494;SDS011;10909;53.590;10.054;2023-03-18T06:20:29;5.63;;;3.17;;
21494;SDS011;10909;53.590;10.054;2023-03-18T06:22:58;3.70;;;3.33;;
21494;SDS011;10909;53.590;10.054;2023-03-18T06:25:24;5.63;;;3.40;;
21494;SDS011;10909;53.590;10.054;2023-03-18T06:27:56;3.83;;;3.37;;
21494;SDS011;10909;53.590;10.054;2023-03-18T06:30:22;3.83;;;3.20;;
21494;SDS011;10909;53.590;10.054;2023-03-18T06:32:50;5.33;;;3.07;;
21494;SDS011;10909;53.590;10.054;2023-03-18T06:35:17;4.03;;;3.40;;
21494;SDS011;10909;53.590;10.054;2023-03-18T06:37:44;3.90;;;3.33;;
21494;SDS011;10909;53.590;10.054;2023-03-18T06:40:10;5.27;;;3.63;;
21494;SDS011;10909;53.590;10.054;2023-03-18T06:42:37;6.00;;;4.07;;
21494;SDS011;10909;53.590;10.054;2023-03-18T06:45:03;5.33;;;3.53;;
21494;SDS011;10909;53.590;10.054;2023-03-18T06:47:29;7.33;;;3.67;;
21494;SDS011;10909;53.590;10.054;2023-03-18T06:50:06;5.57;;;3.67;;
21494;SDS011;10909;53.590;10.054;2023-03-18T06:52:33;4.00;;;3.57;;
21494;SDS011;10909;53.590;10.054;2023-03-18T06:54:59;5.93;;;3.57;;
21494;SDS011;10909;53.590;10.054;2023-03-18T06:57:26;4.57;;;3.30;;
21494;SDS011;10909;53.590;10.054;2023-03-18T07:00:10;4.87;;;3.50;;
21494;SDS011;10909;53.590;10.054;2023-03-18T07:02:37;4.70;;;3.33;;
21494;SDS011;10909;53.590;10.054;2023-03-18T07:05:04;6.53;;;3.50;;
21494;SDS011;10909;53.590;10.054;2023-03-18T07:07:30;5.50;;;3.90;;
21494;SDS011;10909;53.590;10.054;2023-03-18T07:09:57;6.00;;;4.10;;
21494;SDS011;10909;53.590;10.054;2023-03-18T07:12:23;4.78;;;3.72;;
21494;SDS011;10909;53.590;10.054;2023-03-18T07:14:49;4.77;;;3.90;;
21494;SDS011;10909;53.590;10.054;2023-03-18T07:17:17;6.55;;;4.10;;
21494;SDS011;10909;53.590;10.054;2023-03-18T07:19:44;6.23;;;3.70;;
21494;SDS011;10909;53.590;10.054;2023-03-18T07:22:24;5.40;;;3.70;;
21494;SDS011;10909;53.590;10.054;2023-03-18T07:24:50;4.55;;;4.07;;
21494;SDS011;10909;53.590;10.054;2023-03-18T07:27:17;5.67;;;3.83;;
21494;SDS011;10909;53.590;10.054;2023-03-18T07:29:43;4.18;;;3.47;;
21494;SDS011;10909;53.590;10.054;2023-03-18T07:32:10;5.82;;;3.97;;
21494;SDS011;10909;53.590;10.054;2023-03-18T07:34:38;5.43;;;3.58;;
21494;SDS011;10909;53.590;10.054;2023-03-18T07:37:04;5.75;;;3.97;;
21494;SDS011;10909;53.590;10.054;2023-03-18T07:39:38;4.38;;;3.30;;
21494;SDS011;10909;53.590;10.054;2023-03-18T07:42:03;4.97;;;3.72;;
21494;SDS011;10909;53.590;10.054;2023-03-18T07:44:32;5.72;;;3.80;;
21494;SDS011;10909;53.590;10.054;2023-03-18T07:46:58;6.03;;;4.47;;
21494;SDS011;10909;53.590;10.054;2023-03-18T07:49:24;5.45;;;4.05;;
21494;SDS011;10909;53.590;10.054;2023-03-18T07:51:50;5.43;;;4.10;;
21494;SDS011;10909;53.590;10.054;2023-03-18T07:54:16;5.35;;;4.43;;
21494;SDS011;10909;53.590;10.054;2023-03-18T07:56:42;5.65;;;4.28;;
21494;SDS011;10909;53.590;10.054;2023-03-18T07:59:08;6.65;;;4.82;;
21494;SDS011;10909;53.590;10.054;2023-03-18T08:01:35;4.97;;;4.13;;
21494;SDS011;10909;53.590;10.054;2023-03-18T08:04:05;5.88;;;4.40;;
21494;SDS011;10909;53.590;10.054;2023-03-18T08:06:31;6.78;;;3.95;;
21494;SDS011;10909;53.590;10.054;2023-03-18T08:08:57;6.13;;;4.57;;
21494;SDS011;10909;53.590;10.054;2023-03-18T08:11:23;6.57;;;4.63;;
21494;SDS011;10909;53.590;10.054;2023-03-18T08:13:50;6.68;;;4.70;;
21494;SDS011;10909;53.590;10.054;2023-03-18T08:16:34;5.85;;;4.28;;
21494;SDS011;10909;53.590;10.054;2023-03-18T08:19:00;6.63;;;4.82;;
21494;SDS011;10909;53.590;10.054;2023-03-18T08:21:33;5.53;;;4.40;;
21494;SDS011;10909;53.590;10.054;2023-03-18T08:23:59;5.82;;;4.80;;
21494;SDS011;10909;53.590;10.054;2023-03-18T08:26:25;7.00;;;4.82;;
21494;SDS011;10909;53.590;10.054;2023-03-18T08:28:51;5.88;;;4.70;;
21494;SDS011;10909;53.590;10.054;2023-03-18T08:31:17;5.35;;;4.25;;
21494;SDS011;10909;53.590;10.054;2023-03-18T08:33:43;7.10;;;4.50;;
21494;SDS011;10909;53.590;10.054;2023-03-18T08:36:14;5.25;;;4.20;;
21494;SDS011;10909;53.590;10.054;2023-03-18T08:38:40;8.48;;;4.55;;
21494;SDS011;10909;53.590;10.054;2023-03-18T08:41:07;6.10;;;4.68;;
21494;SDS011;10909;53.590;10.054;2023-03-18T08:43:34;6.80;;;4.07;;
21494;SDS011;10909;53.590;10.054;2023-03-18T08:46:00;4.78;;;4.18;;
21494;SDS011;10909;53.590;10.054;2023-03-18T08:48:27;6.63;;;4.38;;
21494;SDS011;10909;53.590;10.054;2023-03-18T08:50:57;6.65;;;4.53;;
21494;SDS011;10909;53.590;10.054;2023-03-18T08:53:24;7.20;;;4.70;;
21494;SDS011;10909;53.590;10.054;2023-03-18T08:55:51;6.40;;;5.00;;
21494;SDS011;10909;53.590;10.054;2023-03-18T08:58:18;6.90;;;4.87;;
21494;SDS011;10909;53.590;10.054;2023-03-18T09:00:44;6.85;;;4.57;;
21494;SDS011;10909;53.590;10.054;2023-03-18T09:03:10;7.87;;;5.07;;
21494;SDS011;10909;53.590;10.054;2023-03-18T09:05:37;6.47;;;4.90;;
21494;SDS011;10909;53.590;10.054;2023-03-18T09:08:04;6.50;;;4.78;;
21494;SDS011;10909;53.590;10.054;2023-03-18T09:10:30;8.87;;;4.87;;
21494;SDS011;10909;53.590;10.054;2023-03-18T09:12:57;6.47;;;5.00;;
21494;SDS011;10909;53.590;10.054;2023-03-18T09:15:24;6.50;;;4.85;;
21494;SDS011;10909;53.590;10.054;2023-03-18T09:17:53;5.33;;;4.57;;
21494;SDS011;10909;53.590;10.054;2023-03-18T09:20:20;5.80;;;4.93;;
21494;SDS011;10909;53.590;10.054;2023-03-18T09:22:46;6.53;;;4.40;;
21494;SDS011;10909;53.590;10.054;2023-03-18T09:25:16;5.95;;;4.15;;
21494;SDS011;10909;53.590;10.054;2023-03-18T09:27:42;5.35;;;3.72;;
21494;SDS011;10909;53.590;10.054;2023-03-18T09:30:08;4.90;;;4.25;;
21494;SDS011;10909;53.590;10.054;2023-03-18T09:32:34;5.53;;;4.47;;
21494;SDS011;10909;53.590;10.054;2023-03-18T09:35:00;6.53;;;4.43;;
21494;SDS011;10909;53.590;10.054;2023-03-18T09:37:26;7.70;;;4.37;;
21494;SDS011;10909;53.590;10.054;2023-03-18T09:39:53;4.38;;;3.97;;
21494;SDS011;10909;53.590;10.054;2023-03-18T09:44:59;6.10;;;4.25;;
21494;SDS011;10909;53.590;10.054;2023-03-18T09:47:44;7.00;;;4.72;;
21494;SDS011;10909;53.590;10.054;2023-03-18T09:50:26;7.32;;;4.72;;
21494;SDS011;10909;53.590;10.054;2023-03-18T09:55:47;5.20;;;4.07;;
21494;SDS011;10909;53.590;10.054;2023-03-18T09:58:30;4.25;;;3.85;;
21494;SDS011;10909;53.590;10.054;2023-03-18T10:01:07;5.30;;;4.30;;
21494;SDS011;10909;53.590;10.054;2023-03-18T10:03:37;5.05;;;3.72;;
21494;SDS011;10909;53.590;10.054;2023-03-18T10:06:16;4.50;;;3.90;;
21494;SDS011;10909;53.590;10.054;2023-03-18T10:09:19;4.22;;;3.55;;
21494;SDS011;10909;53.590;10.054;2023-03-18T10:11:41;4.70;;;3.45;;
21494;SDS011;10909;53.590;10.054;2023-03-18T10:19:50;4.95;;;3.28;;
21494;SDS011;10909;53.590;10.054;2023-03-18T10:22:24;5.00;;;3.60;;
21494;SDS011;10909;53.590;10.054;2023-03-18T10:40:51;5.75;;;4.20;;
21494;SDS011;10909;53.590;10.054;2023-03-18T10:43:18;5.07;;;4.53;;
21494;SDS011;10909;53.590;10.054;2023-03-18T10:45:50;4.80;;;4.20;;
21494;SDS011;10909;53.590;10.054;2023-03-18T10:48:31;4.72;;;3.80;;
21494;SDS011;10909;53.590;10.054;2023-03-18T10:53:41;3.58;;;3.28;;
21494;SDS011;10909;53.590;10.054;2023-03-18T10:56:21;4.25;;;3.85;;
21494;SDS011;10909;53.590;10.054;2023-03-18T10:58:48;4.85;;;4.05;;
21494;SDS011;10909;53.590;10.054;2023-03-18T11:01:16;6.32;;;4.38;;
21494;SDS011;10909;53.590;10.054;2023-03-18T11:06:22;4.90;;;4.10;;
21494;SDS011;10909;53.590;10.054;2023-03-18T11:09:38;4.68;;;4.05;;
21494;SDS011;10909;53.590;10.054;2023-03-18T11:11:47;4.53;;;4.10;;
21494;SDS011;10909;53.590;10.054;2023-03-18T11:14:15;6.75;;;4.90;;
21494;SDS011;10909;53.590;10.054;2023-03-18T11:16:46;6.07;;;4.68;;
21494;SDS011;10909;53.590;10.054;2023-03-18T11:20:05;5.97;;;4.35;;
21494;SDS011;10909;53.590;10.054;2023-03-18T11:22:25;4.32;;;3.75;;
21494;SDS011;10909;53.590;10.054;2023-03-18T11:25:02;5.07;;;4.38;;
21494;SDS011;10909;53.590;10.054;2023-03-18T11:27:45;6.57;;;5.05;;
21494;SDS011;10909;53.590;10.054;2023-03-18T11:30:22;7.47;;;4.65;;
21494;SDS011;10909;53.590;10.054;2023-03-18T11:38:13;5.07;;;4.57;;
21494;SDS011;10909;53.590;10.054;2023-03-18T11:40:40;5.55;;;4.35;;
21494;SDS011;10909;53.590;10.054;2023-03-18T11:43:13;6.60;;;4.68;;
21494;SDS011;10909;53.590;10.054;2023-03-18T11:45:55;6.75;;;4.88;;
21494;SDS011;10909;53.590;10.054;2023-03-18T11:48:35;5.95;;;4.97;;
21494;SDS011;10909;53.590;10.054;2023-03-18T11:56:48;5.32;;;4.47;;
21494;SDS011;10909;53.590;10.054;2023-03-18T12:12:40;5.82;;;3.78;;
21494;SDS011;10909;53.590;10.054;2023-03-18T12:20:50;6.07;;;4.22;;
21494;SDS011;10909;53.590;10.054;2023-03-18T12:23:21;6.07;;;4.03;;
21494;SDS011;10909;53.590;10.054;2023-03-18T12:34:07;6.20;;;3.97;;
21494;SDS011;10909;53.590;10.054;2023-03-18T12:45:14;4.93;;;3.28;;
21494;SDS011;10909;53.590;10.054;2023-03-18T12:47:46;4.10;;;2.90;;
21494;SDS011;10909;53.590;10.054;2023-03-18T12:50:23;6.20;;;2.70;;
21494;SDS011;10909;53.590;10.054;2023-03-18T12:53:02;4.15;;;2.67;;
21494;SDS011;10909;53.590;10.054;2023-03-18T12:55:41;3.72;;;2.83;;
21494;SDS011;10909;53.590;10.054;2023-03-18T12:58:16;3.28;;;2.70;;
21494;SDS011;10909;53.590;10.054;2023-03-18T13:01:07;3.38;;;2.45;;
21494;SDS011;10909;53.590;10.054;2023-03-18T13:04:28;4.32;;;3.17;;
21494;SDS011;10909;53.590;10.054;2023-03-18T13:06:41;4.30;;;2.78;;
21494;SDS011;10909;53.590;10.054;2023-03-18T13:09:26;3.35;;;2.70;;
21494;SDS011;10909;53.590;10.054;2023-03-18T13:12:03;3.47;;;2.95;;
21494;SDS011;10909;53.590;10.054;2023-03-18T13:17:19;2.58;;;2.38;;
21494;SDS011;10909;53.590;10.054;2023-03-18T13:20:05;3.15;;;2.80;;
21494;SDS011;10909;53.590;10.054;2023-03-18T13:47:22;4.75;;;3.17;;
21494;SDS011;10909;53.590;10.054;2023-03-18T13:49:57;4.47;;;3.22;;
21494;SDS011;10909;53.590;10.054;2023-03-18T13:52:33;3.35;;;2.78;;
21494;SDS011;10909;53.590;10.054;2023-03-18T13:55:06;7.00;;;3.80;;
21494;SDS011;10909;53.590;10.054;2023-03-18T13:57:46;4.05;;;3.63;;
21494;SDS011;10909;53.590;10.054;2023-03-18T14:00:37;5.32;;;4.03;;
21494;SDS011;10909;53.590;10.054;2023-03-18T14:03:11;6.00;;;4.22;;
21494;SDS011;10909;53.590;10.054;2023-03-18T14:05:50;5.80;;;4.65;;
21494;SDS011;10909;53.590;10.054;2023-03-18T14:08:43;5.60;;;4.72;;
21494;SDS011;10909;53.590;10.054;2023-03-18T14:16:21;6.88;;;4.88;;
21494;SDS011;10909;53.590;10.054;2023-03-18T14:21:52;6.53;;;5.13;;
21494;SDS011;10909;53.590;10.054;2023-03-18T14:24:30;7.50;;;5.18;;
21494;SDS011;10909;53.590;10.054;2023-03-18T14:32:04;6.82;;;6.13;;
21494;SDS011;10909;53.590;10.054;2023-03-18T14:34:53;6.85;;;5.40;;
21494;SDS011;10909;53.590;10.054;2023-03-18T14:37:24;6.30;;;5.50;;
21494;SDS011;10909;53.590;10.054;2023-03-18T14:39:59;6.22;;;5.45;;
21494;SDS011;10909;53.590;10.054;2023-03-18T14:45:38;8.25;;;5.38;;
21494;SDS011;10909;53.590;10.054;2023-03-18T14:48:16;6.88;;;6.18;;
21494;SDS011;10909;53.590;10.054;2023-03-18T14:50:45;8.82;;;7.22;;
21494;SDS011;10909;53.590;10.054;2023-03-18T14:55:52;8.65;;;6.53;;
21494;SDS011;10909;53.590;10.054;2023-03-18T14:58:21;7.05;;;6.10;;
21494;SDS011;10909;53.590;10.054;2023-03-18T15:01:02;7.93;;;6.10;;
21494;SDS011;10909;53.590;10.054;2023-03-18T15:03:29;7.97;;;6.32;;
21494;SDS011;10909;53.590;10.054;2023-03-18T15:06:00;6.03;;;5.43;;
21494;SDS011;10909;53.590;10.054;2023-03-18T15:08:32;7.63;;;6.13;;
21494;SDS011;10909;53.590;10.054;2023-03-18T15:11:19;6.15;;;5.55;;
21494;SDS011;10909;53.590;10.054;2023-03-18T15:13:47;6.88;;;6.10;;
21494;SDS011;10909;53.590;10.054;2023-03-18T15:16:16;8.98;;;7.00;;
21494;SDS011;10909;53.590;10.054;2023-03-18T15:18:56;7.80;;;5.55;;
21494;SDS011;10909;53.590;10.054;2023-03-18T15:21:30;6.88;;;5.75;;
21494;SDS011;10909;53.590;10.054;2023-03-18T15:23:59;6.00;;;5.40;;
21494;SDS011;10909;53.590;10.054;2023-03-18T15:26:33;6.65;;;5.32;;
21494;SDS011;10909;53.590;10.054;2023-03-18T15:31:50;6.55;;;5.03;;
21494;SDS011;10909;53.590;10.054;2023-03-18T15:34:29;6.85;;;5.15;;
21494;SDS011;10909;53.590;10.054;2023-03-18T15:36:59;6.45;;;5.43;;
21494;SDS011;10909;53.590;10.054;2023-03-18T15:41:57;5.90;;;5.15;;
21494;SDS011;10909;53.590;10.054;2023-03-18T15:44:29;5.50;;;4.78;;
21494;SDS011;10909;53.590;10.054;2023-03-18T15:47:20;6.47;;;4.45;;
21494;SDS011;10909;53.590;10.054;2023-03-18T15:50:00;6.38;;;5.05;;
21494;SDS011;10909;53.590;10.054;2023-03-18T15:52:45;5.20;;;4.68;;
21494;SDS011;10909;53.590;10.054;2023-03-18T15:55:29;6.63;;;4.70;;
21494;SDS011;10909;53.590;10.054;2023-03-18T15:58:14;5.43;;;4.72;;
21494;SDS011;10909;53.590;10.054;2023-03-18T16:00:48;6.85;;;5.43;;
21494;SDS011;10909;53.590;10.054;2023-03-18T16:03:17;5.38;;;4.50;;
21494;SDS011;10909;53.590;10.054;2023-03-18T16:05:46;6.82;;;5.10;;
21494;SDS011;10909;53.590;10.054;2023-03-18T16:08:13;6.57;;;5.22;;
21494;SDS011;10909;53.590;10.054;2023-03-18T16:10:41;5.20;;;4.70;;
21494;SDS011;10909;53.590;10.054;2023-03-18T16:13:08;6.13;;;5.05;;
21494;SDS011;10909;53.590;10.054;2023-03-18T16:15:43;6.32;;;5.20;;
21494;SDS011;10909;53.590;10.054;2023-03-18T16:18:10;5.38;;;4.68;;
21494;SDS011;10909;53.590;10.054;2023-03-18T16:20:37;6.20;;;4.55;;
21494;SDS011;10909;53.590;10.054;2023-03-18T16:23:05;8.95;;;5.28;;
21494;SDS011;10909;53.590;10.054;2023-03-18T16:25:32;6.38;;;5.35;;
21494;SDS011;10909;53.590;10.054;2023-03-18T16:27:59;6.05;;;4.97;;
21494;SDS011;10909;53.590;10.054;2023-03-18T16:30:29;7.53;;;5.38;;
21494;SDS011;10909;53.590;10.054;2023-03-18T16:32:56;6.35;;;4.90;;
21494;SDS011;10909;53.590;10.054;2023-03-18T16:35:24;6.93;;;5.50;;
21494;SDS011;10909;53.590;10.054;2023-03-18T16:37:54;6.43;;;5.35;;
21494;SDS011;10909;53.590;10.054;2023-03-18T16:40:21;6.38;;;5.53;;
21494;SDS011;10909;53.590;10.054;2023-03-18T16:42:49;6.03;;;4.80;;
21494;SDS011;10909;53.590;10.054;2023-03-18T16:45:17;6.53;;;4.70;;
21494;SDS011;10909;53.590;10.054;2023-03-18T16:47:47;6.13;;;5.50;;
21494;SDS011;10909;53.590;10.054;2023-03-18T16:50:19;6.38;;;5.55;;
21494;SDS011;10909;53.590;10.054;2023-03-18T16:52:47;6.75;;;5.40;;
21494;SDS011;10909;53.590;10.054;2023-03-18T16:55:16;6.80;;;5.20;;
21494;SDS011;10909;53.590;10.054;2023-03-18T16:57:47;8.75;;;5.30;;
21494;SDS011;10909;53.590;10.054;2023-03-18T17:00:18;6.28;;;5.30;;
21494;SDS011;10909;53.590;10.054;2023-03-18T17:02:59;7.95;;;6.57;;
21494;SDS011;10909;53.590;10.054;2023-03-18T17:05:27;7.50;;;5.60;;
21494;SDS011;10909;53.590;10.054;2023-03-18T17:07:54;7.47;;;5.43;;